createdAt,value
2023-04-21T00:00:09.275Z,99756.42
2023-04-21T00:01:11.464Z,99753.77
2023-04-21T00:02:14.092Z,99757.27
2023-04-21T00:03:16.957Z,99751.12
2023-04-21T00:04:20.443Z,99755.63
2023-04-21T00:05:22.972Z,99754.70
2023-04-21T00:06:27.337Z,99751.12
2023-04-21T00:07:29.401Z,99760.00
2023-04-21T00:08:31.803Z,99752.83
2023-04-21T00:09:33.989Z,99752.91
2023-04-21T00:10:36.258Z,99751.12
2023-04-21T00:11:38.464Z,99749.41
2023-04-21T00:12:40.975Z,99750.19
2023-04-21T00:13:43.132Z,99740.52
2023-04-21T00:14:45.275Z,99748.47
2023-04-21T00:15:47.472Z,99756.42
2023-04-21T00:16:49.999Z,99750.19
2023-04-21T00:17:52.703Z,99753.84
2023-04-21T00:18:55.236Z,99745.89
2023-04-21T00:19:57.751Z,99745.97
2023-04-21T00:21:00.520Z,99745.11
2023-04-21T00:22:02.808Z,99748.69
2023-04-21T00:23:05.447Z,99750.41
2023-04-21T00:24:08.473Z,99749.55
2023-04-21T00:25:10.788Z,99745.19
2023-04-21T00:26:14.503Z,99745.19
2023-04-21T00:27:18.125Z,99743.39
2023-04-21T00:28:20.411Z,99740.06
2023-04-21T00:29:23.063Z,99738.27
2023-04-21T00:30:25.502Z,99743.65
2023-04-21T00:31:28.867Z,99743.72
2023-04-21T00:32:33.184Z,99747.23
2023-04-21T00:33:35.930Z,99741.08
2023-04-21T00:34:38.116Z,99741.93
2023-04-21T00:35:40.866Z,99735.84
2023-04-21T00:36:43.304Z,99735.84
2023-04-21T00:37:47.089Z,99736.93
2023-04-21T00:38:49.144Z,99737.86
2023-04-21T00:39:51.086Z,99739.58
2023-04-21T00:40:53.651Z,99738.64
2023-04-21T00:41:56.112Z,99743.16
2023-04-21T00:42:58.327Z,99743.02
2023-04-21T00:45:14.889Z,99734.66
2023-04-21T00:46:18.288Z,99736.29
2023-04-21T00:47:20.534Z,99740.66
2023-04-21T00:48:25.142Z,99731.85
2023-04-21T00:49:27.756Z,99740.66
2023-04-21T00:50:30.348Z,99737.08
2023-04-21T00:51:35.707Z,99748.59
2023-04-21T00:52:42.650Z,99748.59
2023-04-21T00:53:45.938Z,99743.30
2023-04-21T00:54:48.441Z,99741.77
2023-04-21T00:55:50.993Z,99741.69
2023-04-21T00:56:54.641Z,99740.98
2023-04-21T00:57:57.553Z,99750.64
2023-04-21T00:59:03.219Z,99743.63
2023-04-21T01:00:08.022Z,99744.41
2023-04-21T01:01:13.206Z,99741.13
2023-04-21T01:02:16.753Z,99740.20
2023-04-21T01:03:19.104Z,99738.48
2023-04-21T01:04:21.471Z,99741.20
2023-04-21T01:05:23.709Z,99736.61
2023-04-21T01:06:30.234Z,99734.90
2023-04-21T01:07:33.035Z,99731.39
2023-04-21T01:08:36.315Z,99735.98
2023-04-21T01:09:38.640Z,99733.19
2023-04-21T01:10:41.949Z,99729.67
2023-04-21T01:12:56.432Z,99734.43
2023-04-21T01:14:00.551Z,99736.98
2023-04-21T01:15:03.325Z,99735.98
2023-04-21T01:16:07.102Z,99728.10
2023-04-21T01:17:09.393Z,99735.12
2023-04-21T01:18:12.118Z,99729.03
2023-04-21T01:19:15.638Z,99730.83
2023-04-21T01:20:17.989Z,99729.89
2023-04-21T01:21:20.825Z,99731.61
2023-04-21T01:22:23.058Z,99728.03
2023-04-21T01:23:26.443Z,99728.81
2023-04-21T01:25:55.509Z,99718.72
2023-04-21T01:26:57.944Z,99724.92
2023-04-21T01:28:01.225Z,99725.82
2023-04-21T01:29:03.536Z,99717.88
2023-04-21T01:30:09.856Z,99715.12
2023-04-21T01:31:12.213Z,99716.05
2023-04-21T01:33:28.972Z,99711.78
2023-04-21T01:34:33.078Z,99716.12
2023-04-21T01:35:35.237Z,99714.26
2023-04-21T01:36:38.386Z,99712.47
2023-04-21T01:37:40.525Z,99710.69
2023-04-21T01:38:43.216Z,99715.12
2023-04-21T01:39:48.777Z,99714.19
2023-04-21T01:40:53.358Z,99712.47
2023-04-21T01:41:56.999Z,99707.17
2023-04-21T01:42:59.210Z,99716.05
2023-04-21T01:44:01.446Z,99709.04
2023-04-21T01:45:04.407Z,99708.03
2023-04-21T01:46:07.339Z,99707.17
2023-04-21T01:47:09.775Z,99717.77
2023-04-21T01:48:12.384Z,99706.31
2023-04-21T01:49:15.240Z,99708.03
2023-04-21T01:50:18.773Z,99715.12
2023-04-21T01:51:20.895Z,99704.45
2023-04-21T01:52:23.065Z,99708.89
2023-04-21T01:53:25.340Z,99708.03
2023-04-21T01:54:28.019Z,99704.45
2023-04-21T01:55:30.286Z,99700.02
2023-04-21T01:56:33.493Z,99707.96
2023-04-21T01:57:35.775Z,99699.23
2023-04-21T01:58:37.814Z,99703.59
2023-04-21T01:59:40.084Z,99703.42
2023-04-21T02:00:42.321Z,99693.76
2023-04-21T02:01:44.515Z,99699.16
2023-04-21T02:02:46.892Z,99694.73
2023-04-21T02:03:49.398Z,99692.15
2023-04-21T02:04:52.241Z,99688.64
2023-04-21T02:05:54.298Z,99686.86
2023-04-21T02:06:56.548Z,99696.59
2023-04-21T02:07:58.762Z,99694.73
2023-04-21T02:09:01.372Z,99697.44
2023-04-21T02:10:06.551Z,99690.44
2023-04-21T02:11:08.823Z,99687.86
2023-04-21T02:12:11.588Z,99692.08
2023-04-21T02:13:15.692Z,99683.28
2023-04-21T02:14:17.974Z,99684.28
2023-04-21T02:15:20.226Z,99688.72
2023-04-21T02:16:22.966Z,99689.65
2023-04-21T02:17:25.747Z,99679.09
2023-04-21T02:18:29.794Z,99681.75
2023-04-21T02:19:32.069Z,99679.09
2023-04-21T02:20:34.434Z,99673.80
2023-04-21T02:21:36.481Z,99673.80
2023-04-21T02:22:39.176Z,99672.09
2023-04-21T02:23:41.555Z,99664.30
2023-04-21T02:24:43.775Z,99673.02
2023-04-21T02:25:47.500Z,99675.67
2023-04-21T02:26:49.855Z,99666.80
2023-04-21T02:27:52.027Z,99673.95
2023-04-21T02:28:54.206Z,99671.38
2023-04-21T02:29:56.252Z,99676.60
2023-04-21T02:30:58.510Z,99671.30
2023-04-21T02:32:10.764Z,99667.73
2023-04-21T02:33:05.726Z,99666.09
2023-04-21T02:34:07.920Z,99667.88
2023-04-21T02:35:10.719Z,99666.95
2023-04-21T02:36:13.604Z,99669.59
2023-04-21T02:37:15.665Z,99660.80
2023-04-21T02:38:17.817Z,99660.94
2023-04-21T02:39:20.355Z,99663.52
2023-04-21T02:40:23.325Z,99663.59
2023-04-21T02:41:27.128Z,99657.47
2023-04-21T02:42:29.180Z,99660.11
2023-04-21T02:43:31.295Z,99665.41
2023-04-21T02:44:33.276Z,99661.80
2023-04-21T02:45:36.607Z,99657.47
2023-04-21T02:46:42.968Z,99659.25
2023-04-21T02:47:45.359Z,99665.41
2023-04-21T02:48:47.469Z,99660.26
2023-04-21T02:49:49.737Z,99654.97
2023-04-21T02:50:53.207Z,99659.55
2023-04-21T02:51:55.911Z,99656.97
2023-04-21T02:52:58.390Z,99659.69
2023-04-21T02:54:01.161Z,99652.69
2023-04-21T02:55:03.768Z,99658.83
2023-04-21T02:56:08.126Z,99660.70
2023-04-21T02:57:10.344Z,99657.27
2023-04-21T02:58:12.595Z,99661.62
2023-04-21T02:59:14.649Z,99653.69
2023-04-21T03:00:18.133Z,99662.56
2023-04-21T03:01:20.402Z,99655.58
2023-04-21T03:02:22.765Z,99658.23
2023-04-21T03:03:27.361Z,99660.70
2023-04-21T03:04:33.768Z,99662.56
2023-04-21T03:05:38.607Z,99658.05
2023-04-21T03:06:45.097Z,99655.58
2023-04-21T03:07:48.685Z,99658.23
2023-04-21T03:08:53.896Z,99653.01
2023-04-21T03:09:57.219Z,99657.44
2023-04-21T03:11:07.610Z,99654.87
2023-04-21T03:12:11.074Z,99654.02
2023-04-21T03:14:39.221Z,99654.87
2023-04-21T03:15:46.157Z,99654.80
2023-04-21T03:16:53.377Z,99652.15
2023-04-21T03:17:59.623Z,99653.87
2023-04-21T03:19:04.903Z,99658.23
2023-04-21T03:20:10.348Z,99651.97
2023-04-21T03:21:16.568Z,99659.09
2023-04-21T03:22:22.788Z,99653.87
2023-04-21T03:23:29.146Z,99659.16
2023-04-21T03:24:31.499Z,99659.16
2023-04-21T03:25:35.408Z,99658.98
2023-04-21T03:26:52.791Z,99666.77
2023-04-21T03:27:57.130Z,99662.41
2023-04-21T03:29:03.440Z,99660.55
2023-04-21T03:30:09.181Z,99661.48
2023-04-21T03:31:16.877Z,99660.55
2023-04-21T03:32:22.729Z,99658.69
2023-04-21T03:33:30.063Z,99656.97
2023-04-21T03:34:34.629Z,99656.12
2023-04-21T03:35:40.335Z,99662.34
2023-04-21T03:36:46.038Z,99658.83
2023-04-21T03:37:51.257Z,99654.47
2023-04-21T03:39:05.937Z,99654.33
2023-04-21T03:40:18.083Z,99660.55
2023-04-21T03:41:22.453Z,99663.98
2023-04-21T03:42:30.561Z,99663.13
2023-04-21T03:43:39.164Z,99659.47
2023-04-21T03:47:22.887Z,99659.64
2023-04-21T03:48:27.314Z,99654.03
2023-04-21T03:49:29.531Z,99658.47
2023-04-21T03:50:32.296Z,99662.91
2023-04-21T03:51:34.431Z,99653.96
2023-04-21T03:52:36.494Z,99664.55
2023-04-21T03:53:38.642Z,99659.15
2023-04-21T03:54:40.714Z,99665.41
2023-04-21T03:55:42.880Z,99660.11
2023-04-21T03:56:45.520Z,99658.30
2023-04-21T03:57:48.493Z,99657.36
2023-04-21T03:58:50.696Z,99656.50
2023-04-21T03:59:52.799Z,99654.64
2023-04-21T04:00:55.187Z,99659.00
2023-04-21T04:01:57.332Z,99658.07
2023-04-21T04:02:59.530Z,99656.20
2023-04-21T04:04:03.311Z,99660.64
2023-04-21T04:05:06.577Z,99660.57
2023-04-21T04:06:09.314Z,99659.71
2023-04-21T04:07:11.755Z,99649.98
2023-04-21T04:08:14.023Z,99658.07
2023-04-21T04:09:16.091Z,99661.50
2023-04-21T04:10:19.659Z,99651.84
2023-04-21T04:11:21.892Z,99656.35
2023-04-21T04:12:24.148Z,99659.94
2023-04-21T04:13:26.295Z,99652.78
2023-04-21T04:14:29.153Z,99657.92
2023-04-21T04:15:31.216Z,99661.50
2023-04-21T04:16:34.924Z,99659.71
2023-04-21T04:17:37.341Z,99659.71
2023-04-21T04:18:39.568Z,99657.92
2023-04-21T04:19:42.286Z,99659.78
2023-04-21T04:20:44.553Z,99658.85
2023-04-21T04:21:49.083Z,99663.30
2023-04-21T04:22:51.500Z,99670.38
2023-04-21T04:23:53.728Z,99670.45
2023-04-21T04:24:56.425Z,99670.52
2023-04-21T04:25:58.581Z,99671.45
2023-04-21T04:27:01.252Z,99674.88
2023-04-21T04:28:03.628Z,99672.23
2023-04-21T04:29:06.666Z,99675.81
2023-04-21T04:30:11.105Z,99674.10
2023-04-21T04:31:13.434Z,99671.63
2023-04-21T04:32:15.978Z,99675.28
2023-04-21T04:33:18.154Z,99672.56
2023-04-21T04:34:20.417Z,99676.81
2023-04-21T04:35:22.589Z,99672.38
2023-04-21T04:36:24.854Z,99679.32
2023-04-21T04:37:27.033Z,99683.69
2023-04-21T04:38:29.573Z,99680.96
2023-04-21T04:39:31.943Z,99672.95
2023-04-21T04:40:34.325Z,99678.98
2023-04-21T04:41:36.594Z,99676.34
2023-04-21T04:42:38.767Z,99675.41
2023-04-21T04:43:40.925Z,99684.13
2023-04-21T04:44:42.854Z,99683.95
2023-04-21T04:45:44.978Z,99682.09
2023-04-21T04:46:47.262Z,99679.38
2023-04-21T04:47:49.968Z,99681.94
2023-04-21T04:48:52.906Z,99682.73
2023-04-21T04:49:55.134Z,99677.28
2023-04-21T04:50:57.404Z,99674.63
2023-04-21T04:51:59.865Z,99674.45
2023-04-21T04:53:02.058Z,99665.42
2023-04-21T04:54:04.143Z,99672.44
2023-04-21T04:55:08.118Z,99679.30
2023-04-21T04:56:10.511Z,99681.02
2023-04-21T04:57:12.700Z,99682.66
2023-04-21T04:58:15.270Z,99676.39
2023-04-21T04:59:17.406Z,99685.91
2023-04-21T05:00:19.870Z,99677.88
2023-04-21T05:01:22.407Z,99668.22
2023-04-21T05:02:24.809Z,99676.95
2023-04-21T05:03:27.204Z,99681.39
2023-04-21T05:04:29.892Z,99679.59
2023-04-21T05:05:32.178Z,99676.95
2023-04-21T05:06:34.571Z,99680.45
2023-04-21T05:07:37.693Z,99677.72
2023-04-21T05:08:40.048Z,99676.09
2023-04-21T05:09:42.101Z,99676.02
2023-04-21T05:10:44.439Z,99682.24
2023-04-21T05:11:48.114Z,99683.09
2023-04-21T05:12:50.367Z,99676.02
2023-04-21T05:13:52.565Z,99678.66
2023-04-21T05:14:55.356Z,99685.75
2023-04-21T05:15:58.392Z,99688.40
2023-04-21T05:17:01.335Z,99680.45
2023-04-21T05:18:03.729Z,99690.03
2023-04-21T05:19:05.942Z,99682.17
2023-04-21T05:20:10.799Z,99679.44
2023-04-21T05:21:13.173Z,99683.09
2023-04-21T05:22:16.166Z,99683.95
2023-04-21T05:23:18.379Z,99689.25
2023-04-21T05:24:21.129Z,99689.25
2023-04-21T05:25:23.427Z,99689.25
2023-04-21T05:26:26.584Z,99689.18
2023-04-21T05:27:28.808Z,99685.59
2023-04-21T05:28:32.019Z,99688.17
2023-04-21T05:29:34.818Z,99685.52
2023-04-21T05:30:37.691Z,99688.95
2023-04-21T05:31:39.920Z,99686.20
2023-04-21T05:32:42.448Z,99688.77
2023-04-21T05:33:45.296Z,99686.90
2023-04-21T05:34:47.537Z,99684.17
2023-04-21T05:35:49.457Z,99688.46
2023-04-21T05:36:52.082Z,99685.66
2023-04-21T05:37:54.125Z,99689.09
2023-04-21T05:38:56.214Z,99681.81
2023-04-21T05:39:58.273Z,99676.51
2023-04-21T05:41:01.614Z,99681.66
2023-04-21T05:42:04.049Z,99682.52
2023-04-21T05:43:06.169Z,99676.20
2023-04-21T05:44:08.316Z,99687.50
2023-04-21T05:45:11.065Z,99677.76
2023-04-21T05:46:13.313Z,99679.36
2023-04-21T05:47:15.571Z,99684.58
2023-04-21T05:48:18.270Z,99671.25
2023-04-21T05:49:20.509Z,99674.68
2023-04-21T05:50:23.990Z,99669.38
2023-04-21T05:51:26.524Z,99673.66
2023-04-21T05:52:29.134Z,99674.52
2023-04-21T05:53:31.192Z,99672.73
2023-04-21T05:54:33.755Z,99672.65
2023-04-21T05:55:36.860Z,99675.22
2023-04-21T05:56:39.261Z,99671.63
2023-04-21T05:57:41.779Z,99674.17
2023-04-21T05:58:44.639Z,99675.89
2023-04-21T05:59:46.790Z,99674.95
2023-04-21T06:00:49.548Z,99672.30
2023-04-21T06:01:51.720Z,99667.86
2023-04-21T06:02:54.730Z,99674.02
2023-04-21T06:03:57.044Z,99671.36
2023-04-21T06:05:00.015Z,99667.86
2023-04-21T06:06:04.275Z,99670.42
2023-04-21T06:07:07.343Z,99672.14
2023-04-21T06:08:09.551Z,99666.76
2023-04-21T06:09:12.041Z,99670.27
2023-04-21T06:10:14.752Z,99670.27
2023-04-21T06:11:16.997Z,99672.92
2023-04-21T06:12:19.037Z,99668.39
2023-04-21T06:13:21.501Z,99671.90
2023-04-21T06:14:24.054Z,99674.47
2023-04-21T06:15:26.105Z,99674.39
2023-04-21T06:16:28.592Z,99676.93
2023-04-21T06:17:30.680Z,99679.50
2023-04-21T06:18:32.668Z,99675.91
2023-04-21T06:19:38.450Z,99680.20
2023-04-21T06:20:40.639Z,99680.98
2023-04-21T06:21:42.825Z,99672.94
2023-04-21T06:22:44.997Z,99678.16
2023-04-21T06:23:49.300Z,99681.59
2023-04-21T06:24:51.630Z,99676.09
2023-04-21T06:26:04.608Z,99686.55
2023-04-21T06:27:11.346Z,99678.50
2023-04-21T06:28:13.542Z,99692.46
2023-04-21T06:29:15.603Z,99689.64
2023-04-21T06:30:19.537Z,99689.45
2023-04-21T06:31:22.286Z,99687.57
2023-04-21T06:32:24.591Z,99683.04
2023-04-21T06:33:27.197Z,99684.67
2023-04-21T06:34:29.769Z,99688.95
2023-04-21T06:35:31.882Z,99692.38
2023-04-21T06:36:34.206Z,99694.95
2023-04-21T06:37:36.429Z,99689.53
2023-04-21T06:38:38.685Z,99697.33
2023-04-21T06:39:40.827Z,99684.84
2023-04-21T06:40:44.124Z,99689.98
2023-04-21T06:41:47.188Z,99681.08
2023-04-21T06:42:49.353Z,99686.22
2023-04-21T06:43:52.317Z,99681.65
2023-04-21T06:45:05.176Z,99687.73
2023-04-21T06:46:12.941Z,99684.99
2023-04-21T06:47:18.150Z,99681.23
2023-04-21T06:48:21.985Z,99686.45
2023-04-21T06:49:26.872Z,99687.23
2023-04-21T06:50:31.886Z,99681.72
2023-04-21T06:51:38.210Z,99685.14
2023-04-21T06:52:47.471Z,99688.57
2023-04-21T06:53:50.348Z,99679.66
2023-04-21T06:54:56.985Z,99690.14
2023-04-21T06:56:01.624Z,99689.13
2023-04-21T06:57:06.911Z,99687.23
2023-04-21T06:58:13.840Z,99682.78
2023-04-21T06:59:21.110Z,99688.83
2023-04-21T07:00:26.863Z,99684.30
2023-04-21T07:01:41.977Z,99684.12
2023-04-21T07:02:47.430Z,99687.55
2023-04-21T07:03:54.693Z,99686.52
2023-04-21T07:05:00.861Z,99689.09
2023-04-21T07:06:06.715Z,99684.52
2023-04-21T07:07:10.495Z,99684.34
2023-04-21T07:08:16.129Z,99694.02
2023-04-21T07:09:21.832Z,99689.48
2023-04-21T07:10:28.724Z,99687.59
2023-04-21T07:11:33.819Z,99679.45
2023-04-21T07:12:39.213Z,99691.79
2023-04-21T07:13:44.613Z,99678.30
2023-04-21T07:15:04.272Z,99686.19
2023-04-21T07:16:09.948Z,99683.44
2023-04-21T07:17:13.733Z,99690.38
2023-04-21T07:18:18.984Z,99692.95
2023-04-21T07:19:22.773Z,99697.23
2023-04-21T07:20:27.580Z,99691.74
2023-04-21T07:21:30.624Z,99689.73
2023-04-21T07:22:37.989Z,99694.96
2023-04-21T07:23:50.303Z,99690.33
2023-04-21T07:24:53.727Z,99691.00
2023-04-21T07:26:01.475Z,99684.44
2023-04-21T07:27:05.023Z,99696.61
2023-04-21T07:28:08.998Z,99685.80
2023-04-21T07:29:15.582Z,99695.40
2023-04-21T07:30:20.599Z,99691.67
2023-04-21T07:31:26.099Z,99701.27
2023-04-21T07:32:32.239Z,99685.23
2023-04-21T07:33:39.197Z,99694.91
2023-04-21T07:34:41.816Z,99684.19
2023-04-21T07:35:48.136Z,99691.13
2023-04-21T07:36:55.832Z,99684.86
2023-04-21T07:38:03.799Z,99681.05
2023-04-21T07:39:07.165Z,99680.86
2023-04-21T07:40:11.609Z,99687.71
2023-04-21T07:41:22.374Z,99693.70
2023-04-21T07:42:26.916Z,99694.34
2023-04-21T07:44:54.079Z,99686.00
2023-04-21T07:45:58.879Z,99686.77
2023-04-21T07:47:02.068Z,99685.05
2023-04-21T07:48:06.903Z,99681.44
2023-04-21T07:49:11.274Z,99692.94
2023-04-21T07:50:20.205Z,99694.66
2023-04-21T07:51:26.139Z,99691.14
2023-04-21T07:52:31.463Z,99683.16
2023-04-21T07:53:34.806Z,99694.66
2023-04-21T07:54:41.215Z,99690.19
2023-04-21T07:56:00.139Z,99695.51
2023-04-21T07:57:06.071Z,99690.95
2023-04-21T07:58:20.345Z,99694.47
2023-04-21T07:59:35.828Z,99700.64
2023-04-21T08:00:42.439Z,99703.30
2023-04-21T08:01:45.696Z,99703.18
2023-04-21T08:02:50.987Z,99695.20
2023-04-21T08:03:57.422Z,99701.38
2023-04-21T08:04:59.896Z,99705.02
2023-04-21T08:06:02.650Z,99703.30
2023-04-21T08:07:06.099Z,99706.83
2023-04-21T08:08:08.611Z,99701.59
2023-04-21T08:09:12.998Z,99698.94
2023-04-21T08:10:16.130Z,99707.86
2023-04-21T08:11:18.308Z,99705.97
2023-04-21T08:12:20.334Z,99707.68
2023-04-21T08:13:22.856Z,99709.36
2023-04-21T08:14:25.042Z,99706.61
2023-04-21T08:15:27.319Z,99709.17
2023-04-21T08:16:29.619Z,99710.89
2023-04-21T08:17:31.766Z,99710.89
2023-04-21T08:18:33.999Z,99708.98
2023-04-21T08:19:36.163Z,99710.70
2023-04-21T08:20:38.425Z,99706.14
2023-04-21T08:21:40.648Z,99706.91
2023-04-21T08:22:43.019Z,99712.02
2023-04-21T08:23:45.301Z,99713.72
2023-04-21T08:24:47.946Z,99716.29
2023-04-21T08:25:50.199Z,99718.09
2023-04-21T08:26:52.766Z,99719.05
2023-04-21T08:27:55.057Z,99719.27
2023-04-21T08:28:57.347Z,99717.55
2023-04-21T08:29:59.578Z,99717.55
2023-04-21T08:31:01.776Z,99717.55
2023-04-21T08:32:04.468Z,99715.84
2023-04-21T08:33:07.402Z,99726.48
2023-04-21T08:34:09.773Z,99718.50
2023-04-21T08:35:12.000Z,99719.45
2023-04-21T08:37:18.672Z,99713.18
2023-04-21T08:38:20.859Z,99723.73
2023-04-21T08:39:23.001Z,99720.13
2023-04-21T08:41:41.570Z,99721.91
2023-04-21T08:42:44.570Z,99732.17
2023-04-21T08:43:46.683Z,99724.85
2023-04-21T08:44:48.921Z,99730.08
2023-04-21T08:45:52.687Z,99730.84
2023-04-21T08:46:58.619Z,99723.62
2023-04-21T08:48:02.073Z,99723.62
2023-04-21T08:49:04.816Z,99707.66
2023-04-21T08:50:10.934Z,99723.62
2023-04-21T08:51:16.706Z,99729.90
2023-04-21T08:52:18.902Z,99720.20
2023-04-21T08:53:21.851Z,99726.37
2023-04-21T08:54:24.127Z,99722.77
2023-04-21T08:55:28.878Z,99730.62
2023-04-21T08:56:31.388Z,99724.48
2023-04-21T08:57:34.237Z,99726.16
2023-04-21T08:58:37.462Z,99729.80
2023-04-21T08:59:40.221Z,99727.97
2023-04-21T09:00:43.578Z,99727.88
2023-04-21T09:02:16.529Z,99728.64
2023-04-21T09:03:26.348Z,99729.48
2023-04-21T09:04:30.089Z,99738.33
2023-04-21T09:05:36.422Z,99737.48
2023-04-21T09:06:40.602Z,99735.67
2023-04-21T09:07:42.855Z,99744.52
2023-04-21T09:08:53.842Z,99740.91
2023-04-21T09:09:57.672Z,99736.53
2023-04-21T09:11:01.177Z,99741.09
2023-04-21T09:12:04.007Z,99741.09
2023-04-21T09:13:07.333Z,99742.89
2023-04-21T09:14:11.275Z,99743.75
2023-04-21T09:15:13.883Z,99742.98
2023-04-21T09:16:18.862Z,99746.59
2023-04-21T09:17:29.779Z,99738.73
2023-04-21T09:18:32.039Z,99744.06
2023-04-21T09:19:34.297Z,99744.92
2023-04-21T09:20:36.807Z,99749.39
2023-04-21T09:21:42.615Z,99746.59
2023-04-21T09:22:45.128Z,99742.98
2023-04-21T09:24:58.781Z,99735.97
2023-04-21T09:26:03.920Z,99737.48
2023-04-21T09:27:06.560Z,99753.30
2023-04-21T09:28:09.912Z,99753.30
2023-04-21T09:29:12.606Z,99749.69
2023-04-21T09:31:32.799Z,99755.94
2023-04-21T09:32:39.887Z,99755.01
2023-04-21T09:33:57.584Z,99757.67
2023-04-21T09:34:51.116Z,99751.48
2023-04-21T09:35:53.754Z,99741.85
2023-04-21T09:38:13.571Z,99743.00
2023-04-21T09:40:20.160Z,99754.48
2023-04-21T09:41:22.683Z,99758.01
2023-04-21T09:42:32.653Z,99748.44
2023-04-21T09:43:35.732Z,99755.66
2023-04-21T09:44:50.537Z,99750.42
2023-04-21T09:45:42.538Z,99758.59
2023-04-21T09:46:48.237Z,99764.11
2023-04-21T09:47:52.374Z,99773.13
2023-04-21T09:48:55.527Z,99756.52
2023-04-21T09:49:57.639Z,99760.31
2023-04-21T09:51:27.153Z,99764.87
2023-04-21T09:52:18.661Z,99764.10
2023-04-21T09:53:15.887Z,99772.27
2023-04-21T09:55:28.767Z,99771.53
2023-04-21T09:56:33.380Z,99767.25
2023-04-21T09:58:50.127Z,99763.34
2023-04-21T10:00:01.074Z,99767.70
2023-04-21T10:01:04.540Z,99764.27
2023-04-21T10:02:07.888Z,99774.14
2023-04-21T10:03:12.441Z,99768.09
2023-04-21T10:04:15.914Z,99778.05
2023-04-21T10:05:18.920Z,99775.48
2023-04-21T10:06:22.395Z,99778.31
2023-04-21T10:07:24.963Z,99766.91
2023-04-21T10:08:27.226Z,99772.32
2023-04-21T10:11:12.334Z,99771.61
2023-04-21T10:12:15.148Z,99773.17
2023-04-21T10:13:17.432Z,99769.57
2023-04-21T10:14:20.049Z,99776.60
2023-04-21T10:15:34.439Z,99771.28
2023-04-21T10:16:37.437Z,99771.96
2023-04-21T10:17:39.812Z,99772.05
2023-04-21T10:18:45.108Z,99769.30
2023-04-21T10:19:50.397Z,99763.89
2023-04-21T10:20:58.165Z,99763.89
2023-04-21T10:22:00.890Z,99762.00
2023-04-21T10:23:03.223Z,99761.83
2023-04-21T10:24:06.547Z,99765.22
2023-04-21T10:25:09.074Z,99752.59
2023-04-21T10:26:26.602Z,99742.72
2023-04-21T10:27:41.062Z,99746.15
2023-04-21T10:29:01.862Z,99752.05
2023-04-21T10:30:20.482Z,99755.35
2023-04-21T10:31:27.343Z,99762.20
2023-04-21T10:34:08.340Z,99750.42
2023-04-21T10:35:17.684Z,99762.39
2023-04-21T10:36:24.046Z,99761.26
2023-04-21T10:37:28.024Z,99764.69
2023-04-21T10:38:37.221Z,99763.73
2023-04-21T10:39:54.735Z,99760.03
2023-04-21T10:41:17.022Z,99758.95
2023-04-21T10:42:25.214Z,99750.02
2023-04-21T10:43:45.291Z,99758.77
2023-04-21T10:45:00.666Z,99757.83
2023-04-21T10:47:27.708Z,99764.78
2023-04-21T10:48:34.725Z,99763.76
2023-04-21T10:49:40.499Z,99752.16
2023-04-21T10:50:42.881Z,99768.13
2023-04-21T10:52:02.744Z,99765.37
2023-04-21T10:53:10.620Z,99759.93
2023-04-21T10:54:13.941Z,99749.09
2023-04-21T10:55:16.571Z,99761.45
2023-04-21T10:56:21.594Z,99755.94
2023-04-21T10:57:24.372Z,99747.86
2023-04-21T10:58:26.951Z,99752.14
2023-04-21T10:59:29.110Z,99743.20
2023-04-21T11:00:32.093Z,99747.58
2023-04-21T11:01:34.311Z,99753.62
2023-04-21T11:02:39.773Z,99734.04
2023-04-21T11:03:41.385Z,99746.21
2023-04-21T11:04:45.237Z,99742.59
2023-04-21T11:05:48.166Z,99742.41
2023-04-21T11:07:17.367Z,99742.22
2023-04-21T11:08:19.459Z,99734.00
2023-04-21T11:09:21.962Z,99731.91
2023-04-21T11:10:24.780Z,99726.38
2023-04-21T11:11:27.034Z,99719.91
2023-04-21T11:12:31.723Z,99729.39
2023-04-21T11:13:33.947Z,99722.05
2023-04-21T11:14:38.581Z,99727.19
2023-04-21T11:15:40.680Z,99719.72
2023-04-21T11:16:42.964Z,99722.09
2023-04-21T11:17:45.355Z,99719.23
2023-04-21T11:18:47.831Z,99716.37
2023-04-21T11:19:55.607Z,99718.70
2023-04-21T11:21:07.081Z,99715.94
2023-04-21T11:22:09.793Z,99715.73
2023-04-21T11:23:17.332Z,99716.59
2023-04-21T11:24:23.073Z,99717.45
2023-04-21T11:25:27.210Z,99717.45
2023-04-21T11:26:35.218Z,99712.97
2023-04-21T11:27:37.941Z,99720.88
2023-04-21T11:28:41.572Z,99722.58
2023-04-21T11:29:46.561Z,99724.30
2023-04-21T11:30:48.896Z,99720.67
2023-04-21T11:31:51.033Z,99720.44
2023-04-21T11:32:54.812Z,99716.82
2023-04-21T11:33:59.892Z,99717.67
2023-04-21T11:35:02.694Z,99711.48
2023-04-21T11:36:06.165Z,99716.82
2023-04-21T11:37:09.442Z,99715.97
2023-04-21T11:38:12.116Z,99709.77
2023-04-21T11:39:16.160Z,99719.59
2023-04-21T11:40:19.064Z,99709.77
2023-04-21T11:41:23.021Z,99707.86
2023-04-21T11:42:25.331Z,99719.38
2023-04-21T11:43:28.608Z,99711.28
2023-04-21T11:44:40.117Z,99709.38
2023-04-21T11:45:42.782Z,99707.56
2023-04-21T11:46:46.331Z,99700.52
2023-04-21T11:47:49.474Z,99704.04
2023-04-21T11:49:07.180Z,99706.81
2023-04-21T11:50:10.381Z,99706.70
2023-04-21T11:51:22.010Z,99703.08
2023-04-21T11:52:28.780Z,99703.94
2023-04-21T11:53:31.370Z,99691.47
2023-04-21T11:54:33.749Z,99695.84
2023-04-21T11:55:35.984Z,99693.17
2023-04-21T11:57:51.894Z,99699.38
2023-04-21T11:58:54.669Z,99692.22
2023-04-21T12:00:02.465Z,99692.11
2023-04-21T12:01:09.608Z,99692.11
2023-04-21T12:02:15.597Z,99691.26
2023-04-21T12:03:19.631Z,99691.26
2023-04-21T12:04:24.459Z,99696.59
2023-04-21T12:06:47.367Z,99695.95
2023-04-21T12:07:50.548Z,99688.80
2023-04-21T12:11:30.993Z,99684.53
2023-04-21T12:12:37.223Z,99678.12
2023-04-21T12:13:39.830Z,99683.26
2023-04-21T12:14:44.392Z,99680.36
2023-04-21T12:15:49.129Z,99676.53
2023-04-21T12:16:54.627Z,99676.33
2023-04-21T12:17:56.914Z,99681.45
2023-04-21T12:18:59.056Z,99680.27
2023-04-21T12:20:06.739Z,99677.48
2023-04-21T12:21:09.507Z,99682.62
2023-04-21T12:22:17.018Z,99670.89
2023-04-21T12:23:19.244Z,99676.97
2023-04-21T12:24:21.423Z,99677.62
2023-04-21T12:25:23.630Z,99669.48
2023-04-21T12:26:26.341Z,99672.83
2023-04-21T12:27:28.597Z,99667.18
2023-04-21T12:28:30.868Z,99668.89
2023-04-21T12:29:33.433Z,99672.30
2023-04-21T12:30:38.648Z,99667.58
2023-04-21T12:31:39.817Z,99671.86
2023-04-21T12:32:42.034Z,99676.98
2023-04-21T12:33:44.359Z,99671.44
2023-04-21T12:34:47.112Z,99666.74
2023-04-21T12:35:49.295Z,99670.02
2023-04-21T12:36:51.977Z,99674.40
2023-04-21T12:37:54.477Z,99668.84
2023-04-21T12:38:57.030Z,99664.26
2023-04-21T12:39:59.184Z,99664.15
2023-04-21T12:41:01.480Z,99673.77
2023-04-21T12:42:04.028Z,99670.13
2023-04-21T12:43:06.082Z,99670.84
2023-04-21T12:44:08.231Z,99669.89
2023-04-21T12:45:11.285Z,99663.59
2023-04-21T12:46:13.944Z,99664.33
2023-04-21T12:47:16.165Z,99658.03
2023-04-21T12:48:18.651Z,99665.83
2023-04-21T12:49:21.047Z,99662.20
2023-04-21T12:50:23.407Z,99664.65
2023-04-21T12:51:25.476Z,99662.70
2023-04-21T12:52:28.318Z,99652.76
2023-04-21T12:53:31.549Z,99658.09
2023-04-21T12:54:33.822Z,99658.09
2023-04-21T12:55:36.483Z,99655.43
2023-04-21T12:56:42.541Z,99660.88
2023-04-21T12:57:44.822Z,99657.35
2023-04-21T12:58:46.978Z,99660.88
2023-04-21T12:59:49.584Z,99656.39
2023-04-21T13:00:51.898Z,99654.58